sensor_id;sensor_type;location;lat;lon;timestamp;P1;durP1;ratioP1;P2;durP2;ratioP2
5245;SDS011;54412;51.206;6.888;2023-02-11T00:00:34;38.10;;;22.20;;
5245;SDS011;54412;51.206;6.888;2023-02-11T00:03:03;40.00;;;22.87;;
5245;SDS011;54412;51.206;6.888;2023-02-11T00:05:29;33.63;;;22.27;;
5245;SDS011;54412;51.206;6.888;2023-02-11T00:07:55;34.33;;;22.70;;
5245;SDS011;54412;51.206;6.888;2023-02-11T00:10:21;41.57;;;24.50;;
5245;SDS011;54412;51.206;6.888;2023-02-11T00:12:46;37.80;;;22.37;;
5245;SDS011;54412;51.206;6.888;2023-02-11T00:15:12;38.07;;;23.90;;
5245;SDS011;54412;51.206;6.888;2023-02-11T00:17:38;34.97;;;23.40;;
5245;SDS011;54412;51.206;6.888;2023-02-11T00:20:04;38.53;;;23.80;;
5245;SDS011;54412;51.206;6.888;2023-02-11T00:22:30;40.23;;;23.03;;
5245;SDS011;54412;51.206;6.888;2023-02-11T00:24:55;37.43;;;22.40;;
5245;SDS011;54412;51.206;6.888;2023-02-11T00:27:21;35.23;;;21.27;;
5245;SDS011;54412;51.206;6.888;2023-02-11T00:29:47;35.27;;;21.43;;
5245;SDS011;54412;51.206;6.888;2023-02-11T00:32:13;32.77;;;20.40;;
5245;SDS011;54412;51.206;6.888;2023-02-11T00:34:38;31.33;;;21.43;;
5245;SDS011;54412;51.206;6.888;2023-02-11T00:37:04;31.20;;;19.97;;
5245;SDS011;54412;51.206;6.888;2023-02-11T00:39:30;34.53;;;21.90;;
5245;SDS011;54412;51.206;6.888;2023-02-11T00:41:57;37.67;;;21.80;;
5245;SDS011;54412;51.206;6.888;2023-02-11T00:44:23;30.30;;;21.40;;
5245;SDS011;54412;51.206;6.888;2023-02-11T00:46:48;32.60;;;21.73;;
5245;SDS011;54412;51.206;6.888;2023-02-11T00:49:14;33.23;;;20.80;;
5245;SDS011;54412;51.206;6.888;2023-02-11T00:51:40;28.80;;;20.33;;
5245;SDS011;54412;51.206;6.888;2023-02-11T00:54:06;29.13;;;20.30;;
5245;SDS011;54412;51.206;6.888;2023-02-11T00:56:32;38.90;;;21.90;;
5245;SDS011;54412;51.206;6.888;2023-02-11T00:58:57;30.53;;;20.97;;
5245;SDS011;54412;51.206;6.888;2023-02-11T01:01:23;30.70;;;21.90;;
5245;SDS011;54412;51.206;6.888;2023-02-11T01:03:49;33.03;;;21.10;;
5245;SDS011;54412;51.206;6.888;2023-02-11T01:06:15;37.67;;;19.77;;
5245;SDS011;54412;51.206;6.888;2023-02-11T01:08:42;35.30;;;21.73;;
5245;SDS011;54412;51.206;6.888;2023-02-11T01:11:15;29.70;;;21.20;;
5245;SDS011;54412;51.206;6.888;2023-02-11T01:13:45;34.30;;;21.30;;
5245;SDS011;54412;51.206;6.888;2023-02-11T01:16:12;28.73;;;20.17;;
5245;SDS011;54412;51.206;6.888;2023-02-11T01:18:38;33.60;;;21.37;;
5245;SDS011;54412;51.206;6.888;2023-02-11T01:21:06;32.17;;;20.50;;
5245;SDS011;54412;51.206;6.888;2023-02-11T01:23:31;34.23;;;21.47;;
5245;SDS011;54412;51.206;6.888;2023-02-11T01:25:57;27.40;;;19.90;;
5245;SDS011;54412;51.206;6.888;2023-02-11T01:28:24;33.13;;;19.63;;
5245;SDS011;54412;51.206;6.888;2023-02-11T01:30:53;28.10;;;20.10;;
5245;SDS011;54412;51.206;6.888;2023-02-11T01:33:20;29.87;;;20.00;;
5245;SDS011;54412;51.206;6.888;2023-02-11T01:35:46;27.33;;;19.97;;
5245;SDS011;54412;51.206;6.888;2023-02-11T01:38:15;32.80;;;21.43;;
5245;SDS011;54412;51.206;6.888;2023-02-11T01:40:50;32.50;;;22.00;;
5245;SDS011;54412;51.206;6.888;2023-02-11T01:43:20;30.90;;;21.13;;
5245;SDS011;54412;51.206;6.888;2023-02-11T01:48:20;29.40;;;20.37;;
5245;SDS011;54412;51.206;6.888;2023-02-11T01:50:54;31.10;;;20.40;;
5245;SDS011;54412;51.206;6.888;2023-02-11T01:53:26;31.73;;;20.90;;
5245;SDS011;54412;51.206;6.888;2023-02-11T01:56:12;27.60;;;20.20;;
5245;SDS011;54412;51.206;6.888;2023-02-11T01:58:59;36.60;;;20.57;;
5245;SDS011;54412;51.206;6.888;2023-02-11T02:01:34;32.17;;;20.63;;
5245;SDS011;54412;51.206;6.888;2023-02-11T02:04:03;31.33;;;19.83;;
5245;SDS011;54412;51.206;6.888;2023-02-11T02:06:33;35.00;;;21.37;;
5245;SDS011;54412;51.206;6.888;2023-02-11T02:09:08;40.40;;;20.03;;
5245;SDS011;54412;51.206;6.888;2023-02-11T02:11:45;33.90;;;21.17;;
5245;SDS011;54412;51.206;6.888;2023-02-11T02:14:12;38.50;;;21.27;;
5245;SDS011;54412;51.206;6.888;2023-02-11T02:16:38;33.43;;;21.23;;
5245;SDS011;54412;51.206;6.888;2023-02-11T02:25:01;33.13;;;21.90;;
5245;SDS011;54412;51.206;6.888;2023-02-11T02:28:07;32.63;;;21.30;;
5245;SDS011;54412;51.206;6.888;2023-02-11T02:31:24;31.70;;;21.60;;
5245;SDS011;54412;51.206;6.888;2023-02-11T02:34:43;35.43;;;23.50;;
5245;SDS011;54412;51.206;6.888;2023-02-11T02:40:57;29.23;;;22.10;;
5245;SDS011;54412;51.206;6.888;2023-02-11T02:43:30;28.80;;;21.77;;
5245;SDS011;54412;51.206;6.888;2023-02-11T02:46:09;32.20;;;21.40;;
5245;SDS011;54412;51.206;6.888;2023-02-11T02:48:36;30.67;;;22.10;;
5245;SDS011;54412;51.206;6.888;2023-02-11T02:51:14;33.83;;;21.97;;
5245;SDS011;54412;51.206;6.888;2023-02-11T02:57:12;36.80;;;23.20;;
5245;SDS011;54412;51.206;6.888;2023-02-11T03:02:47;32.73;;;21.83;;
5245;SDS011;54412;51.206;6.888;2023-02-11T03:05:53;27.97;;;19.67;;
5245;SDS011;54412;51.206;6.888;2023-02-11T03:08:47;28.13;;;21.57;;
5245;SDS011;54412;51.206;6.888;2023-02-11T03:11:37;34.30;;;21.13;;
5245;SDS011;54412;51.206;6.888;2023-02-11T03:14:04;30.80;;;21.43;;
5245;SDS011;54412;51.206;6.888;2023-02-11T03:16:37;35.80;;;22.60;;
5245;SDS011;54412;51.206;6.888;2023-02-11T03:19:05;34.47;;;20.70;;
5245;SDS011;54412;51.206;6.888;2023-02-11T03:21:43;33.43;;;21.83;;
5245;SDS011;54412;51.206;6.888;2023-02-11T03:24:14;40.47;;;21.17;;
5245;SDS011;54412;51.206;6.888;2023-02-11T03:26:53;34.17;;;22.17;;
5245;SDS011;54412;51.206;6.888;2023-02-11T03:32:14;34.93;;;20.60;;
5245;SDS011;54412;51.206;6.888;2023-02-11T03:34:56;31.37;;;19.90;;
5245;SDS011;54412;51.206;6.888;2023-02-11T03:37:38;31.57;;;20.77;;
5245;SDS011;54412;51.206;6.888;2023-02-11T03:40:19;31.80;;;21.90;;
5245;SDS011;54412;51.206;6.888;2023-02-11T03:42:55;43.17;;;21.60;;
5245;SDS011;54412;51.206;6.888;2023-02-11T03:45:32;35.27;;;19.13;;
5245;SDS011;54412;51.206;6.888;2023-02-11T03:48:11;27.13;;;20.20;;
5245;SDS011;54412;51.206;6.888;2023-02-11T03:50:44;35.67;;;19.67;;
5245;SDS011;54412;51.206;6.888;2023-02-11T03:53:13;35.57;;;21.50;;
5245;SDS011;54412;51.206;6.888;2023-02-11T03:55:40;31.53;;;19.87;;
5245;SDS011;54412;51.206;6.888;2023-02-11T03:58:11;40.10;;;19.43;;
5245;SDS011;54412;51.206;6.888;2023-02-11T04:00:37;36.13;;;19.00;;
5245;SDS011;54412;51.206;6.888;2023-02-11T04:03:06;27.90;;;18.50;;
5245;SDS011;54412;51.206;6.888;2023-02-11T04:05:34;31.00;;;21.23;;
5245;SDS011;54412;51.206;6.888;2023-02-11T04:08:00;36.00;;;20.37;;
5245;SDS011;54412;51.206;6.888;2023-02-11T04:10:27;25.70;;;16.73;;
5245;SDS011;54412;51.206;6.888;2023-02-11T04:12:53;35.07;;;18.03;;
5245;SDS011;54412;51.206;6.888;2023-02-11T04:15:18;32.63;;;19.57;;
5245;SDS011;54412;51.206;6.888;2023-02-11T04:17:44;34.57;;;19.17;;
5245;SDS011;54412;51.206;6.888;2023-02-11T04:20:10;35.40;;;19.10;;
5245;SDS011;54412;51.206;6.888;2023-02-11T04:22:36;29.33;;;19.20;;
5245;SDS011;54412;51.206;6.888;2023-02-11T04:25:02;30.40;;;19.70;;
5245;SDS011;54412;51.206;6.888;2023-02-11T04:27:30;35.00;;;20.80;;
5245;SDS011;54412;51.206;6.888;2023-02-11T04:29:56;35.03;;;18.53;;
5245;SDS011;54412;51.206;6.888;2023-02-11T04:32:22;31.07;;;18.67;;
5245;SDS011;54412;51.206;6.888;2023-02-11T04:34:47;30.63;;;18.57;;
5245;SDS011;54412;51.206;6.888;2023-02-11T04:37:13;30.43;;;18.13;;
5245;SDS011;54412;51.206;6.888;2023-02-11T04:39:39;32.67;;;19.30;;
5245;SDS011;54412;51.206;6.888;2023-02-11T04:42:05;48.50;;;18.90;;
5245;SDS011;54412;51.206;6.888;2023-02-11T04:44:31;33.27;;;20.00;;
5245;SDS011;54412;51.206;6.888;2023-02-11T04:46:57;29.40;;;16.07;;
5245;SDS011;54412;51.206;6.888;2023-02-11T04:49:23;30.43;;;18.67;;
5245;SDS011;54412;51.206;6.888;2023-02-11T04:51:49;28.63;;;18.47;;
5245;SDS011;54412;51.206;6.888;2023-02-11T04:54:15;27.63;;;18.93;;
5245;SDS011;54412;51.206;6.888;2023-02-11T04:56:41;31.23;;;17.30;;
5245;SDS011;54412;51.206;6.888;2023-02-11T04:59:07;34.13;;;16.70;;
5245;SDS011;54412;51.206;6.888;2023-02-11T05:01:33;23.83;;;17.30;;
5245;SDS011;54412;51.206;6.888;2023-02-11T05:03:59;34.93;;;19.10;;
5245;SDS011;54412;51.206;6.888;2023-02-11T05:06:25;29.03;;;17.77;;
5245;SDS011;54412;51.206;6.888;2023-02-11T05:08:50;34.57;;;18.70;;
5245;SDS011;54412;51.206;6.888;2023-02-11T05:11:17;33.97;;;20.80;;
5245;SDS011;54412;51.206;6.888;2023-02-11T05:13:46;48.00;;;19.23;;
5245;SDS011;54412;51.206;6.888;2023-02-11T05:16:13;32.67;;;19.30;;
5245;SDS011;54412;51.206;6.888;2023-02-11T05:18:40;36.07;;;19.77;;
5245;SDS011;54412;51.206;6.888;2023-02-11T05:21:09;31.43;;;19.53;;
5245;SDS011;54412;51.206;6.888;2023-02-11T05:23:38;33.67;;;21.33;;
5245;SDS011;54412;51.206;6.888;2023-02-11T05:26:06;26.03;;;17.30;;
5245;SDS011;54412;51.206;6.888;2023-02-11T05:28:32;35.13;;;20.37;;
5245;SDS011;54412;51.206;6.888;2023-02-11T05:30:59;33.77;;;19.87;;
5245;SDS011;54412;51.206;6.888;2023-02-11T05:33:25;30.83;;;19.13;;
5245;SDS011;54412;51.206;6.888;2023-02-11T05:35:53;34.13;;;20.10;;
5245;SDS011;54412;51.206;6.888;2023-02-11T05:38:24;37.53;;;19.70;;
5245;SDS011;54412;51.206;6.888;2023-02-11T05:40:50;31.33;;;19.60;;
5245;SDS011;54412;51.206;6.888;2023-02-11T05:43:16;38.90;;;20.00;;
5245;SDS011;54412;51.206;6.888;2023-02-11T05:45:41;35.90;;;20.50;;
5245;SDS011;54412;51.206;6.888;2023-02-11T05:48:07;32.13;;;21.40;;
5245;SDS011;54412;51.206;6.888;2023-02-11T05:50:32;34.20;;;22.20;;
5245;SDS011;54412;51.206;6.888;2023-02-11T05:52:58;41.30;;;20.70;;
5245;SDS011;54412;51.206;6.888;2023-02-11T05:55:24;34.40;;;23.13;;
5245;SDS011;54412;51.206;6.888;2023-02-11T05:57:49;37.97;;;21.70;;
5245;SDS011;54412;51.206;6.888;2023-02-11T06:00:15;40.27;;;22.07;;
5245;SDS011;54412;51.206;6.888;2023-02-11T06:02:41;37.17;;;21.67;;
5245;SDS011;54412;51.206;6.888;2023-02-11T06:05:07;46.63;;;22.40;;
5245;SDS011;54412;51.206;6.888;2023-02-11T06:07:33;46.13;;;23.00;;
5245;SDS011;54412;51.206;6.888;2023-02-11T06:09:59;48.00;;;22.07;;
5245;SDS011;54412;51.206;6.888;2023-02-11T06:12:24;42.00;;;23.57;;
5245;SDS011;54412;51.206;6.888;2023-02-11T06:14:51;42.03;;;21.83;;
5245;SDS011;54412;51.206;6.888;2023-02-11T06:17:17;36.60;;;24.03;;
5245;SDS011;54412;51.206;6.888;2023-02-11T06:19:42;43.33;;;23.03;;
5245;SDS011;54412;51.206;6.888;2023-02-11T06:22:08;37.67;;;23.53;;
5245;SDS011;54412;51.206;6.888;2023-02-11T06:24:34;33.27;;;21.67;;
5245;SDS011;54412;51.206;6.888;2023-02-11T06:26:59;40.23;;;23.93;;
5245;SDS011;54412;51.206;6.888;2023-02-11T06:29:27;42.43;;;23.37;;
5245;SDS011;54412;51.206;6.888;2023-02-11T06:31:53;42.37;;;24.00;;
5245;SDS011;54412;51.206;6.888;2023-02-11T06:34:19;48.67;;;24.80;;
5245;SDS011;54412;51.206;6.888;2023-02-11T06:36:44;35.43;;;23.87;;
5245;SDS011;54412;51.206;6.888;2023-02-11T06:39:11;43.87;;;23.90;;
5245;SDS011;54412;51.206;6.888;2023-02-11T06:41:37;45.57;;;26.30;;
5245;SDS011;54412;51.206;6.888;2023-02-11T06:44:03;45.40;;;25.40;;
5245;SDS011;54412;51.206;6.888;2023-02-11T06:46:29;44.10;;;25.83;;
5245;SDS011;54412;51.206;6.888;2023-02-11T06:48:55;45.33;;;24.70;;
5245;SDS011;54412;51.206;6.888;2023-02-11T06:51:20;50.13;;;26.67;;
5245;SDS011;54412;51.206;6.888;2023-02-11T06:53:46;43.60;;;25.07;;
5245;SDS011;54412;51.206;6.888;2023-02-11T06:56:14;48.67;;;25.80;;
5245;SDS011;54412;51.206;6.888;2023-02-11T06:58:45;49.80;;;26.10;;
5245;SDS011;54412;51.206;6.888;2023-02-11T07:01:13;53.07;;;27.10;;
5245;SDS011;54412;51.206;6.888;2023-02-11T07:03:41;43.33;;;26.07;;
5245;SDS011;54412;51.206;6.888;2023-02-11T07:06:10;50.50;;;26.97;;
5245;SDS011;54412;51.206;6.888;2023-02-11T07:08:39;46.20;;;26.47;;
5245;SDS011;54412;51.206;6.888;2023-02-11T07:11:11;48.77;;;27.90;;
5245;SDS011;54412;51.206;6.888;2023-02-11T07:13:49;44.20;;;26.17;;
5245;SDS011;54412;51.206;6.888;2023-02-11T07:16:16;42.53;;;25.53;;
5245;SDS011;54412;51.206;6.888;2023-02-11T07:18:43;49.40;;;26.53;;
5245;SDS011;54412;51.206;6.888;2023-02-11T07:21:11;43.23;;;25.90;;
5245;SDS011;54412;51.206;6.888;2023-02-11T07:23:39;51.23;;;27.20;;
5245;SDS011;54412;51.206;6.888;2023-02-11T07:26:06;39.10;;;25.60;;
5245;SDS011;54412;51.206;6.888;2023-02-11T07:28:36;55.70;;;25.40;;
5245;SDS011;54412;51.206;6.888;2023-02-11T07:31:12;47.57;;;26.27;;
5245;SDS011;54412;51.206;6.888;2023-02-11T07:33:41;51.93;;;27.37;;
5245;SDS011;54412;51.206;6.888;2023-02-11T07:36:09;41.50;;;26.70;;
5245;SDS011;54412;51.206;6.888;2023-02-11T07:38:37;43.63;;;27.10;;
5245;SDS011;54412;51.206;6.888;2023-02-11T07:41:04;55.83;;;26.27;;
5245;SDS011;54412;51.206;6.888;2023-02-11T07:43:33;59.37;;;27.70;;
5245;SDS011;54412;51.206;6.888;2023-02-11T07:46:05;56.60;;;27.87;;
5245;SDS011;54412;51.206;6.888;2023-02-11T07:48:33;46.53;;;28.60;;
5245;SDS011;54412;51.206;6.888;2023-02-11T07:51:06;48.57;;;27.30;;
5245;SDS011;54412;51.206;6.888;2023-02-11T07:53:42;56.63;;;28.00;;
5245;SDS011;54412;51.206;6.888;2023-02-11T07:56:09;54.57;;;26.70;;
5245;SDS011;54412;51.206;6.888;2023-02-11T07:58:37;55.87;;;27.00;;
5245;SDS011;54412;51.206;6.888;2023-02-11T08:01:06;54.80;;;29.27;;
5245;SDS011;54412;51.206;6.888;2023-02-11T08:03:35;66.90;;;27.97;;
5245;SDS011;54412;51.206;6.888;2023-02-11T08:06:02;58.73;;;27.97;;
5245;SDS011;54412;51.206;6.888;2023-02-11T08:08:33;50.80;;;26.47;;
5245;SDS011;54412;51.206;6.888;2023-02-11T08:11:04;49.80;;;26.73;;
5245;SDS011;54412;51.206;6.888;2023-02-11T08:13:32;48.40;;;27.13;;
5245;SDS011;54412;51.206;6.888;2023-02-11T08:15:59;58.10;;;26.27;;
5245;SDS011;54412;51.206;6.888;2023-02-11T08:18:25;65.10;;;30.40;;
5245;SDS011;54412;51.206;6.888;2023-02-11T08:20:50;57.17;;;29.10;;
5245;SDS011;54412;51.206;6.888;2023-02-11T08:23:16;56.37;;;29.53;;
5245;SDS011;54412;51.206;6.888;2023-02-11T08:25:41;51.53;;;27.50;;
5245;SDS011;54412;51.206;6.888;2023-02-11T08:28:07;54.87;;;29.33;;
5245;SDS011;54412;51.206;6.888;2023-02-11T08:30:33;61.63;;;30.17;;
5245;SDS011;54412;51.206;6.888;2023-02-11T08:33:00;50.60;;;28.37;;
5245;SDS011;54412;51.206;6.888;2023-02-11T08:35:26;57.80;;;29.83;;
5245;SDS011;54412;51.206;6.888;2023-02-11T08:37:52;57.93;;;30.70;;
5245;SDS011;54412;51.206;6.888;2023-02-11T08:40:18;55.03;;;30.67;;
5245;SDS011;54412;51.206;6.888;2023-02-11T08:42:44;66.67;;;31.40;;
5245;SDS011;54412;51.206;6.888;2023-02-11T08:45:09;75.23;;;32.47;;
5245;SDS011;54412;51.206;6.888;2023-02-11T08:47:36;62.33;;;30.60;;
5245;SDS011;54412;51.206;6.888;2023-02-11T08:50:03;67.13;;;30.87;;
5245;SDS011;54412;51.206;6.888;2023-02-11T08:52:30;59.33;;;30.53;;
5245;SDS011;54412;51.206;6.888;2023-02-11T08:54:55;63.03;;;30.10;;
5245;SDS011;54412;51.206;6.888;2023-02-11T08:57:21;53.53;;;28.00;;
5245;SDS011;54412;51.206;6.888;2023-02-11T08:59:47;64.60;;;30.57;;
5245;SDS011;54412;51.206;6.888;2023-02-11T09:02:13;70.83;;;31.67;;
5245;SDS011;54412;51.206;6.888;2023-02-11T09:04:39;54.83;;;29.67;;
5245;SDS011;54412;51.206;6.888;2023-02-11T09:07:05;55.33;;;30.50;;
5245;SDS011;54412;51.206;6.888;2023-02-11T09:09:31;54.70;;;29.57;;
5245;SDS011;54412;51.206;6.888;2023-02-11T09:11:57;70.87;;;31.50;;
5245;SDS011;54412;51.206;6.888;2023-02-11T09:14:25;62.47;;;31.30;;
5245;SDS011;54412;51.206;6.888;2023-02-11T09:16:51;59.00;;;28.70;;
5245;SDS011;54412;51.206;6.888;2023-02-11T09:19:17;74.37;;;33.67;;
5245;SDS011;54412;51.206;6.888;2023-02-11T09:21:43;59.73;;;32.80;;
5245;SDS011;54412;51.206;6.888;2023-02-11T09:24:10;68.70;;;33.10;;
5245;SDS011;54412;51.206;6.888;2023-02-11T09:26:36;66.83;;;33.30;;
5245;SDS011;54412;51.206;6.888;2023-02-11T09:29:02;60.93;;;33.33;;
5245;SDS011;54412;51.206;6.888;2023-02-11T09:31:30;74.53;;;34.07;;
5245;SDS011;54412;51.206;6.888;2023-02-11T09:33:58;66.00;;;35.00;;
5245;SDS011;54412;51.206;6.888;2023-02-11T09:36:28;72.70;;;34.37;;
5245;SDS011;54412;51.206;6.888;2023-02-11T09:39:02;61.13;;;34.67;;
5245;SDS011;54412;51.206;6.888;2023-02-11T09:44:21;73.63;;;34.43;;
5245;SDS011;54412;51.206;6.888;2023-02-11T09:47:23;64.93;;;34.30;;
5245;SDS011;54412;51.206;6.888;2023-02-11T09:50:02;77.03;;;34.37;;
5245;SDS011;54412;51.206;6.888;2023-02-11T09:52:49;69.10;;;35.93;;
5245;SDS011;54412;51.206;6.888;2023-02-11T09:55:42;64.10;;;34.47;;
5245;SDS011;54412;51.206;6.888;2023-02-11T09:58:14;71.17;;;34.80;;
5245;SDS011;54412;51.206;6.888;2023-02-11T10:07:08;68.37;;;35.07;;
5245;SDS011;54412;51.206;6.888;2023-02-11T10:10:06;71.03;;;33.93;;
5245;SDS011;54412;51.206;6.888;2023-02-11T10:23:53;63.90;;;35.30;;
5245;SDS011;54412;51.206;6.888;2023-02-11T10:26:25;63.47;;;35.87;;
5245;SDS011;54412;51.206;6.888;2023-02-11T10:28:55;64.57;;;33.97;;
5245;SDS011;54412;51.206;6.888;2023-02-11T10:31:36;66.40;;;33.87;;
5245;SDS011;54412;51.206;6.888;2023-02-11T10:34:08;68.97;;;34.70;;
5245;SDS011;54412;51.206;6.888;2023-02-11T10:36:40;67.13;;;33.83;;
5245;SDS011;54412;51.206;6.888;2023-02-11T10:39:10;69.47;;;35.00;;
5245;SDS011;54412;51.206;6.888;2023-02-11T10:41:46;84.83;;;35.27;;
5245;SDS011;54412;51.206;6.888;2023-02-11T10:44:40;73.43;;;35.43;;
5245;SDS011;54412;51.206;6.888;2023-02-11T10:47:14;90.50;;;37.00;;
5245;SDS011;54412;51.206;6.888;2023-02-11T10:49:50;71.87;;;34.47;;
5245;SDS011;54412;51.206;6.888;2023-02-11T10:52:23;85.07;;;37.73;;
5245;SDS011;54412;51.206;6.888;2023-02-11T10:57:57;74.43;;;37.50;;
5245;SDS011;54412;51.206;6.888;2023-02-11T11:00:32;79.43;;;37.83;;
5245;SDS011;54412;51.206;6.888;2023-02-11T11:03:03;83.70;;;38.73;;
5245;SDS011;54412;51.206;6.888;2023-02-11T11:05:51;79.53;;;37.23;;
5245;SDS011;54412;51.206;6.888;2023-02-11T11:08:40;77.63;;;37.73;;
5245;SDS011;54412;51.206;6.888;2023-02-11T11:11:09;75.23;;;38.63;;
5245;SDS011;54412;51.206;6.888;2023-02-11T11:16:18;79.87;;;36.90;;
5245;SDS011;54412;51.206;6.888;2023-02-11T11:18:52;76.80;;;38.87;;
5245;SDS011;54412;51.206;6.888;2023-02-11T11:21:33;91.97;;;39.40;;
5245;SDS011;54412;51.206;6.888;2023-02-11T11:24:12;81.30;;;37.87;;
5245;SDS011;54412;51.206;6.888;2023-02-11T11:27:14;72.23;;;35.07;;
5245;SDS011;54412;51.206;6.888;2023-02-11T11:29:46;66.97;;;35.97;;
5245;SDS011;54412;51.206;6.888;2023-02-11T11:34:48;74.67;;;36.70;;
5245;SDS011;54412;51.206;6.888;2023-02-11T11:37:28;89.27;;;36.60;;
5245;SDS011;54412;51.206;6.888;2023-02-11T11:42:32;77.57;;;38.37;;
5245;SDS011;54412;51.206;6.888;2023-02-11T11:48:07;80.47;;;38.00;;
5245;SDS011;54412;51.206;6.888;2023-02-11T11:51:01;75.03;;;36.50;;
5245;SDS011;54412;51.206;6.888;2023-02-11T11:53:38;68.93;;;35.80;;
5245;SDS011;54412;51.206;6.888;2023-02-11T11:56:23;69.03;;;33.90;;
5245;SDS011;54412;51.206;6.888;2023-02-11T11:58:54;65.27;;;34.57;;
5245;SDS011;54412;51.206;6.888;2023-02-11T12:01:29;68.77;;;37.53;;
5245;SDS011;54412;51.206;6.888;2023-02-11T12:07:26;72.73;;;36.50;;
5245;SDS011;54412;51.206;6.888;2023-02-11T12:10:30;69.90;;;36.77;;
5245;SDS011;54412;51.206;6.888;2023-02-11T12:13:20;64.10;;;36.20;;
5245;SDS011;54412;51.206;6.888;2023-02-11T12:19:40;61.97;;;34.80;;
5245;SDS011;54412;51.206;6.888;2023-02-11T12:22:20;65.07;;;34.97;;
5245;SDS011;54412;51.206;6.888;2023-02-11T12:25:38;62.13;;;34.77;;
5245;SDS011;54412;51.206;6.888;2023-02-11T12:28:39;63.93;;;35.60;;
5245;SDS011;54412;51.206;6.888;2023-02-11T12:35:18;62.53;;;35.47;;
5245;SDS011;54412;51.206;6.888;2023-02-11T12:38:25;70.50;;;35.67;;
5245;SDS011;54412;51.206;6.888;2023-02-11T12:41:03;67.47;;;36.27;;
5245;SDS011;54412;51.206;6.888;2023-02-11T12:50:03;67.57;;;35.37;;
5245;SDS011;54412;51.206;6.888;2023-02-11T12:55:33;63.50;;;37.53;;
5245;SDS011;54412;51.206;6.888;2023-02-11T12:58:04;77.80;;;38.47;;
5245;SDS011;54412;51.206;6.888;2023-02-11T13:00:55;66.97;;;35.87;;
5245;SDS011;54412;51.206;6.888;2023-02-11T13:03:34;67.23;;;34.50;;
5245;SDS011;54412;51.206;6.888;2023-02-11T13:06:13;74.40;;;37.57;;
5245;SDS011;54412;51.206;6.888;2023-02-11T13:08:45;69.17;;;36.40;;
5245;SDS011;54412;51.206;6.888;2023-02-11T13:13:51;73.53;;;38.10;;
5245;SDS011;54412;51.206;6.888;2023-02-11T13:19:16;68.03;;;35.07;;
5245;SDS011;54412;51.206;6.888;2023-02-11T13:24:42;75.07;;;38.23;;
5245;SDS011;54412;51.206;6.888;2023-02-11T13:27:35;72.30;;;36.73;;
5245;SDS011;54412;51.206;6.888;2023-02-11T13:35:32;75.70;;;38.50;;
5245;SDS011;54412;51.206;6.888;2023-02-11T13:37:59;75.43;;;38.23;;
5245;SDS011;54412;51.206;6.888;2023-02-11T13:40:41;73.03;;;38.10;;
5245;SDS011;54412;51.206;6.888;2023-02-11T13:43:18;76.73;;;39.57;;
5245;SDS011;54412;51.206;6.888;2023-02-11T13:45:48;69.70;;;37.60;;
5245;SDS011;54412;51.206;6.888;2023-02-11T13:48:16;76.27;;;40.17;;
5245;SDS011;54412;51.206;6.888;2023-02-11T13:50:58;75.70;;;37.90;;
5245;SDS011;54412;51.206;6.888;2023-02-11T13:53:29;70.30;;;36.70;;
5245;SDS011;54412;51.206;6.888;2023-02-11T13:56:41;75.87;;;36.70;;
5245;SDS011;54412;51.206;6.888;2023-02-11T14:08:12;73.00;;;37.43;;
5245;SDS011;54412;51.206;6.888;2023-02-11T14:16:16;85.73;;;41.80;;
5245;SDS011;54412;51.206;6.888;2023-02-11T14:21:21;70.40;;;39.40;;
5245;SDS011;54412;51.206;6.888;2023-02-11T14:23:50;79.60;;;37.60;;
5245;SDS011;54412;51.206;6.888;2023-02-11T14:28:59;75.57;;;37.17;;
5245;SDS011;54412;51.206;6.888;2023-02-11T14:31:40;71.37;;;38.60;;
5245;SDS011;54412;51.206;6.888;2023-02-11T14:34:50;90.40;;;38.93;;
5245;SDS011;54412;51.206;6.888;2023-02-11T14:37:58;71.27;;;37.70;;
5245;SDS011;54412;51.206;6.888;2023-02-11T14:40:31;75.30;;;37.93;;
5245;SDS011;54412;51.206;6.888;2023-02-11T14:43:29;88.67;;;40.27;;
5245;SDS011;54412;51.206;6.888;2023-02-11T14:46:03;94.87;;;40.90;;
5245;SDS011;54412;51.206;6.888;2023-02-11T14:48:30;89.60;;;38.10;;
5245;SDS011;54412;51.206;6.888;2023-02-11T14:53:46;71.40;;;38.57;;
5245;SDS011;54412;51.206;6.888;2023-02-11T14:56:18;73.97;;;38.50;;
5245;SDS011;54412;51.206;6.888;2023-02-11T14:58:55;77.97;;;38.67;;
5245;SDS011;54412;51.206;6.888;2023-02-11T15:01:29;75.60;;;36.47;;
5245;SDS011;54412;51.206;6.888;2023-02-11T15:04:03;78.93;;;38.60;;
5245;SDS011;54412;51.206;6.888;2023-02-11T15:06:56;80.53;;;39.63;;
5245;SDS011;54412;51.206;6.888;2023-02-11T15:12:27;77.20;;;37.77;;
5245;SDS011;54412;51.206;6.888;2023-02-11T15:14:54;76.63;;;39.10;;
5245;SDS011;54412;51.206;6.888;2023-02-11T15:17:25;67.10;;;36.40;;
5245;SDS011;54412;51.206;6.888;2023-02-11T15:19:57;73.83;;;39.33;;
5245;SDS011;54412;51.206;6.888;2023-02-11T15:22:27;74.73;;;39.17;;
5245;SDS011;54412;51.206;6.888;2023-02-11T15:24:59;80.87;;;36.77;;
5245;SDS011;54412;51.206;6.888;2023-02-11T15:27:39;85.17;;;42.70;;
5245;SDS011;54412;51.206;6.888;2023-02-11T15:32:45;74.50;;;40.83;;
5245;SDS011;54412;51.206;6.888;2023-02-11T15:35:15;81.57;;;39.57;;
5245;SDS011;54412;51.206;6.888;2023-02-11T15:37:42;87.20;;;41.70;;
5245;SDS011;54412;51.206;6.888;2023-02-11T15:45:28;81.77;;;41.40;;
5245;SDS011;54412;51.206;6.888;2023-02-11T15:50:34;67.17;;;39.73;;
5245;SDS011;54412;51.206;6.888;2023-02-11T15:53:04;76.00;;;39.27;;
5245;SDS011;54412;51.206;6.888;2023-02-11T15:55:48;79.03;;;40.37;;
5245;SDS011;54412;51.206;6.888;2023-02-11T15:58:18;84.47;;;41.00;;
5245;SDS011;54412;51.206;6.888;2023-02-11T16:00:47;86.97;;;43.87;;
5245;SDS011;54412;51.206;6.888;2023-02-11T16:03:24;71.23;;;40.60;;
5245;SDS011;54412;51.206;6.888;2023-02-11T16:05:56;78.23;;;41.57;;
5245;SDS011;54412;51.206;6.888;2023-02-11T16:08:42;76.07;;;40.70;;
5245;SDS011;54412;51.206;6.888;2023-02-11T16:11:25;91.93;;;41.90;;
5245;SDS011;54412;51.206;6.888;2023-02-11T16:13:58;88.73;;;41.33;;
5245;SDS011;54412;51.206;6.888;2023-02-11T16:16:29;79.47;;;41.17;;
5245;SDS011;54412;51.206;6.888;2023-02-11T16:18:59;85.23;;;42.57;;
5245;SDS011;54412;51.206;6.888;2023-02-11T16:21:31;82.83;;;41.10;;
5245;SDS011;54412;51.206;6.888;2023-02-11T16:24:02;80.43;;;42.67;;
5245;SDS011;54412;51.206;6.888;2023-02-11T16:26:41;81.77;;;43.30;;
5245;SDS011;54412;51.206;6.888;2023-02-11T16:29:21;82.43;;;41.93;;
5245;SDS011;54412;51.206;6.888;2023-02-11T16:32:13;81.27;;;41.80;;
5245;SDS011;54412;51.206;6.888;2023-02-11T16:34:46;69.10;;;40.10;;
5245;SDS011;54412;51.206;6.888;2023-02-11T16:37:12;84.33;;;40.97;;
5245;SDS011;54412;51.206;6.888;2023-02-11T16:39:39;89.23;;;44.93;;
5245;SDS011;54412;51.206;6.888;2023-02-11T16:42:04;83.23;;;42.47;;
5245;SDS011;54412;51.206;6.888;2023-02-11T16:44:31;81.23;;;41.30;;
5245;SDS011;54412;51.206;6.888;2023-02-11T16:46:58;79.03;;;41.00;;
5245;SDS011;54412;51.206;6.888;2023-02-11T16:49:30;82.53;;;41.20;;
5245;SDS011;54412;51.206;6.888;2023-02-11T16:52:05;83.00;;;40.57;;
5245;SDS011;54412;51.206;6.888;2023-02-11T16:54:36;82.67;;;41.07;;
5245;SDS011;54412;51.206;6.888;2023-02-11T16:57:15;89.10;;;40.43;;
5245;SDS011;54412;51.206;6.888;2023-02-11T16:59:46;81.10;;;44.03;;
5245;SDS011;54412;51.206;6.888;2023-02-11T17:04:53;86.47;;;44.07;;
5245;SDS011;54412;51.206;6.888;2023-02-11T17:07:21;81.60;;;43.40;;
5245;SDS011;54412;51.206;6.888;2023-02-11T17:09:47;86.67;;;42.67;;